Time;durP1;ratioP1;P1;durP2;ratioP2;P2;SDS_P1;SDS_P2;PMS_P1;PMS_P2;Temp;Humidity;BMP_temperature;BMP_pressure;BME280_temperature;BME280_humidity;BME280_pressure;Samples;Min_cycle;Max_cycle;Signal;HPM_P1;HPM_P2
2022/03/11 00:01:15;;;;;;;3.65;3.35;;;;;;;-5.76;80.17;61410.03;5026098;28;20206;-77
2022/03/11 00:03:44;;;;;;;2.92;2.70;;;;;;;-5.79;80.82;61414.38;5026211;28;20214;-77
2022/03/11 00:06:11;;;;;;;3.10;2.58;;;;;;;-5.81;81.02;61414.81;5028786;28;20241;-77
2022/03/11 00:08:38;;;;;;;2.70;2.50;;;;;;;-5.81;81.96;61407.91;5025763;28;20213;-77
2022/03/11 00:11:05;;;;;;;2.97;2.70;;;;;;;-5.80;81.46;61405.94;5044979;28;20240;-76
2022/03/11 00:13:32;;;;;;;2.78;2.58;;;;;;;-5.84;82.36;61406.84;5044591;28;20265;-77
2022/03/11 00:15:59;;;;;;;3.25;2.45;;;;;;;-5.92;82.75;61399.69;5034922;28;20234;-77
2022/03/11 00:18:25;;;;;;;3.03;2.65;;;;;;;-6.02;82.90;61392.00;5024533;28;20230;-76
2022/03/11 00:20:54;;;;;;;3.25;2.70;;;;;;;-6.00;83.43;61389.06;5024028;28;20241;-76
2022/03/11 00:23:21;;;;;;;3.00;2.25;;;;;;;-5.98;83.82;61390.59;5023874;28;20281;-77
2022/03/11 00:25:47;;;;;;;2.97;2.70;;;;;;;-6.04;83.95;61387.47;5019582;28;20293;-77
2022/03/11 00:28:14;;;;;;;3.22;2.78;;;;;;;-6.05;84.35;61385.94;5022846;28;20277;-76
2022/03/11 00:30:41;;;;;;;3.45;3.20;;;;;;;-6.10;83.83;61378.91;5024909;28;20199;-78
2022/03/11 00:33:08;;;;;;;3.90;2.70;;;;;;;-6.08;84.10;61383.41;5024122;28;20273;-76
2022/03/11 00:35:35;;;;;;;2.70;2.50;;;;;;;-6.08;84.28;61383.41;5018630;28;20226;-77
2022/03/11 00:38:03;;;;;;;2.88;2.65;;;;;;;-6.06;84.76;61385.44;5025800;28;20222;-77
2022/03/11 00:40:30;;;;;;;4.07;3.08;;;;;;;-6.10;84.75;61381.38;5036619;28;20227;-77
2022/03/11 00:42:57;;;;;;;2.90;2.70;;;;;;;-6.06;84.59;61389.91;5028484;28;20218;-77
2022/03/11 00:45:24;;;;;;;3.03;2.75;;;;;;;-6.06;84.53;61387.41;5023050;28;20213;-76
2022/03/11 00:47:51;;;;;;;2.50;2.30;;;;;;;-6.09;83.86;61386.84;5024430;28;20261;-77
2022/03/11 00:50:19;;;;;;;3.20;2.90;;;;;;;-6.16;84.10;61372.78;5033479;28;20216;-77
2022/03/11 00:52:45;;;;;;;3.70;2.92;;;;;;;-6.15;84.65;61370.81;5019412;28;20222;-77
2022/03/11 00:55:13;;;;;;;4.15;2.72;;;;;;;-6.18;84.63;61373.22;5023355;28;20214;-78
2022/03/11 00:57:40;;;;;;;3.22;2.78;;;;;;;-6.17;84.95;61373.72;5025790;28;20231;-78
2022/03/11 01:00:09;;;;;;;2.92;2.67;;;;;;;-6.17;84.95;61376.72;5040608;28;20198;-77
2022/03/11 01:02:36;;;;;;;4.03;2.78;;;;;;;-6.21;84.88;61372.63;5023733;28;20248;-77
2022/03/11 01:05:04;;;;;;;3.25;3.05;;;;;;;-6.13;84.93;61378.31;5024082;28;20202;-77
2022/03/11 01:07:31;;;;;;;3.60;2.80;;;;;;;-6.12;84.93;61379.34;5022946;28;20241;-76
2022/03/11 01:09:58;;;;;;;4.20;3.35;;;;;;;-6.16;85.57;61374.75;5025124;28;20323;-77
2022/03/11 01:12:27;;;;;;;3.92;3.17;;;;;;;-6.22;86.96;61371.63;5022783;28;20224;-77
2022/03/11 01:14:54;;;;;;;3.55;2.80;;;;;;;-6.13;86.86;61385.25;5032572;28;20523;-77
2022/03/11 01:17:20;;;;;;;3.45;3.17;;;;;;;-6.18;86.31;61372.72;5031269;28;20535;-76
2022/03/11 01:19:47;;;;;;;4.32;3.53;;;;;;;-6.22;86.53;61366.69;5024393;28;20245;-76
2022/03/11 01:22:14;;;;;;;6.78;4.10;;;;;;;-6.23;86.77;61368.13;5026920;28;20221;-75
2022/03/11 01:24:41;;;;;;;4.20;3.15;;;;;;;-6.32;87.43;61358.47;5041420;28;20198;-77
2022/03/11 01:27:08;;;;;;;3.63;2.88;;;;;;;-6.28;87.66;61367.50;5025319;28;20220;-76
2022/03/11 01:29:37;;;;;;;4.50;3.40;;;;;;;-6.31;87.69;61359.47;5021800;28;20204;-76
2022/03/11 01:32:04;;;;;;;4.95;3.22;;;;;;;-6.30;88.30;61361.00;5024199;28;20244;-76
2022/03/11 01:34:31;;;;;;;4.03;3.58;;;;;;;-6.36;88.09;61359.34;5022730;28;20504;-77
2022/03/11 01:36:58;;;;;;;5.07;4.05;;;;;;;-6.36;88.48;61354.91;5022999;28;20238;-76
2022/03/11 01:39:25;;;;;;;3.58;3.28;;;;;;;-6.32;88.35;61361.44;5021571;28;20218;-77
2022/03/11 01:41:52;;;;;;;6.30;3.42;;;;;;;-6.24;88.33;61367.13;5023394;28;20253;-76
2022/03/11 01:44:19;;;;;;;6.65;3.53;;;;;;;-6.21;88.26;61372.63;5021216;28;20207;-77
2022/03/11 01:46:47;;;;;;;3.13;2.83;;;;;;;-6.24;88.47;61362.16;5022925;28;20246;-77
2022/03/11 01:49:14;;;;;;;4.85;3.10;;;;;;;-6.24;89.26;61366.59;5020348;28;20252;-76
2022/03/11 01:51:42;;;;;;;4.43;3.90;;;;;;;-6.33;89.35;61357.94;5029293;28;20298;-76
2022/03/11 01:54:10;;;;;;;5.03;3.75;;;;;;;-6.29;89.33;61366.97;5024327;28;20388;-77
2022/03/11 01:56:38;;;;;;;5.45;3.50;;;;;;;-6.28;89.33;61365.50;5033919;28;20320;-77
2022/03/11 01:59:06;;;;;;;4.82;3.15;;;;;;;-6.35;89.48;61355.91;5023295;28;20321;-78
2022/03/11 02:01:34;;;;;;;6.25;3.55;;;;;;;-6.32;89.67;61366.41;5031223;28;20229;-76
2022/03/11 02:04:02;;;;;;;2.97;2.75;;;;;;;-6.36;89.53;61356.84;5031186;28;20252;-76
2022/03/11 02:06:30;;;;;;;8.35;3.65;;;;;;;-6.44;89.92;61351.72;5032882;28;20199;-77
2022/03/11 02:08:58;;;;;;;4.90;3.40;;;;;;;-6.53;90.33;61337.59;5024273;28;20274;-77
2022/03/11 02:11:25;;;;;;;3.85;3.53;;;;;;;-6.51;90.17;61339.63;5020837;28;20202;-76
2022/03/11 02:13:53;;;;;;;3.88;3.50;;;;;;;-6.53;90.13;61337.06;5038873;28;20498;-78
2022/03/11 02:16:23;;;;;;;4.15;2.70;;;;;;;-6.58;89.72;61334.97;5017041;28;20239;-75
2022/03/11 02:18:51;;;;;;;3.92;3.50;;;;;;;-6.53;89.82;61337.06;5024452;28;20190;-77
2022/03/11 02:21:22;;;;;;;4.65;3.83;;;;;;;-6.56;90.24;61339.50;5023819;28;20398;-76
2022/03/11 02:23:51;;;;;;;3.55;3.13;;;;;;;-6.57;90.89;61336.00;5036918;28;20206;-76
2022/03/11 02:26:20;;;;;;;5.38;4.10;;;;;;;-6.63;91.44;61327.41;5023491;28;20203;-75
2022/03/11 02:28:47;;;;;;;5.35;3.97;;;;;;;-6.67;91.44;61325.28;5026237;28;20428;-76
2022/03/11 02:31:14;;;;;;;4.10;3.67;;;;;;;-6.68;91.38;61324.81;5023566;28;20203;-77
2022/03/11 02:33:41;;;;;;;4.30;3.80;;;;;;;-6.72;91.26;61325.66;5029099;28;20221;-76
2022/03/11 02:36:09;;;;;;;3.85;3.53;;;;;;;-6.71;91.41;61316.78;5041328;28;20233;-76
2022/03/11 02:38:37;;;;;;;4.25;2.88;;;;;;;-6.87;91.40;61304.94;5038567;28;20223;-77
2022/03/11 02:41:05;;;;;;;4.80;4.25;;;;;;;-6.76;90.75;61316.13;5006993;28;20207;-77
2022/03/11 02:43:33;;;;;;;7.03;4.20;;;;;;;-6.83;90.78;61306.56;5024990;28;20215;-77
2022/03/11 02:46:00;;;;;;;4.28;3.80;;;;;;;-6.95;91.47;61299.78;5037914;28;20212;-77
2022/03/11 02:48:27;;;;;;;4.35;3.78;;;;;;;-6.96;91.86;61291.34;5029250;28;20218;-75
2022/03/11 02:50:54;;;;;;;4.55;3.42;;;;;;;-6.95;91.46;61302.25;5027233;28;20203;-76
2022/03/11 02:53:22;;;;;;;5.13;3.85;;;;;;;-6.97;91.44;61297.75;5027032;28;20233;-76
2022/03/11 02:55:49;;;;;;;5.55;3.78;;;;;;;-6.95;91.49;61299.78;5046774;28;20244;-76
2022/03/11 02:58:17;;;;;;;5.68;4.00;;;;;;;-7.02;91.76;61292.66;5025553;28;20531;-76
2022/03/11 03:00:44;;;;;;;4.32;3.60;;;;;;;-7.02;91.64;61287.22;5026008;28;20202;-76
2022/03/11 03:03:11;;;;;;;5.70;3.92;;;;;;;-7.01;91.88;61291.22;5007670;28;20219;-76
2022/03/11 03:05:38;;;;;;;3.38;3.08;;;;;;;-7.14;92.19;61278.50;5008506;28;20218;-76
2022/03/11 03:08:05;;;;;;;5.07;3.50;;;;;;;-7.11;92.11;61283.50;5027045;28;20463;-77
2022/03/11 03:10:32;;;;;;;4.03;3.60;;;;;;;-7.07;92.04;61284.59;5023176;28;20217;-76
2022/03/11 03:12:59;;;;;;;4.18;3.40;;;;;;;-7.09;92.29;61280.59;5028014;28;20264;-76
2022/03/11 03:15:28;;;;;;;5.28;3.85;;;;;;;-7.09;92.31;61285.03;5035581;28;20202;-76
2022/03/11 03:17:54;;;;;;;5.10;4.03;;;;;;;-7.13;92.57;61276.53;5046025;28;20301;-76
2022/03/11 03:20:22;;;;;;;4.53;3.63;;;;;;;-7.18;92.72;61268.97;5026974;28;20268;-76
2022/03/11 03:22:48;;;;;;;4.28;3.63;;;;;;;-7.19;92.88;61270.41;5024871;28;20250;-76
2022/03/11 03:25:15;;;;;;;4.97;3.30;;;;;;;-7.22;92.97;61272.31;5025584;28;20199;-75
2022/03/11 03:27:42;;;;;;;4.55;3.22;;;;;;;-7.30;93.07;61264.69;5023003;28;20226;-76
2022/03/11 03:30:10;;;;;;;7.13;4.63;;;;;;;-7.28;93.32;61263.72;5024089;28;20250;-76
2022/03/11 03:32:41;;;;;;;5.40;4.25;;;;;;;-7.31;93.79;61260.69;5032854;28;20273;-76
2022/03/11 03:35:09;;;;;;;7.35;4.90;;;;;;;-7.28;93.44;61264.25;5024848;28;20211;-75
2022/03/11 03:37:36;;;;;;;3.88;3.35;;;;;;;-7.36;93.74;61248.69;5023083;28;20244;-77
2022/03/11 03:40:03;;;;;;;3.28;3.03;;;;;;;-7.37;93.74;61252.63;5025885;28;20245;-76
2022/03/11 03:42:30;;;;;;;3.97;3.22;;;;;;;-7.42;94.04;61249.50;5023077;28;20241;-77
2022/03/11 03:44:57;;;;;;;3.78;3.17;;;;;;;-7.28;94.19;61261.25;5038456;28;20256;-75
2022/03/11 03:47:24;;;;;;;4.70;3.47;;;;;;;-7.35;94.34;61257.13;5024324;28;20265;-76
2022/03/11 03:49:52;;;;;;;3.17;2.90;;;;;;;-7.27;94.28;61264.75;5025175;28;20491;-76
2022/03/11 03:52:19;;;;;;;4.43;3.45;;;;;;;-7.34;94.20;61253.22;5024317;28;20223;-76
2022/03/11 03:54:46;;;;;;;3.90;3.58;;;;;;;-7.30;94.17;61261.72;5033908;28;20202;-76
2022/03/11 03:57:13;;;;;;;7.13;3.78;;;;;;;-7.30;94.28;61262.22;5031633;28;20314;-75
2022/03/11 03:59:40;;;;;;;5.57;3.80;;;;;;;-7.21;93.70;61265.91;5027774;28;20198;-75
2022/03/11 04:02:07;;;;;;;3.08;2.80;;;;;;;-7.23;93.74;61264.38;5027589;28;20218;-76
2022/03/11 04:04:34;;;;;;;6.35;3.70;;;;;;;-7.23;93.57;61263.91;5025997;28;20199;-76
2022/03/11 04:07:02;;;;;;;4.68;3.65;;;;;;;-7.32;93.78;61262.66;5027670;28;20261;-77
2022/03/11 04:09:29;;;;;;;3.00;2.75;;;;;;;-7.37;93.99;61254.59;5023254;28;20211;-76
2022/03/11 04:11:56;;;;;;;4.32;3.30;;;;;;;-7.40;94.43;61249.56;5041823;28;20287;-76
2022/03/11 04:14:23;;;;;;;3.15;2.90;;;;;;;-7.28;94.06;61263.72;5028260;28;20567;-76
2022/03/11 04:16:50;;;;;;;4.32;3.63;;;;;;;-7.31;94.15;61255.75;5044413;28;20295;-78
2022/03/11 04:19:17;;;;;;;3.33;2.85;;;;;;;-7.35;94.22;61254.66;5030701;28;20491;-75
2022/03/11 04:21:43;;;;;;;3.15;2.88;;;;;;;-7.38;94.20;61251.59;5023971;28;20219;-76
2022/03/11 04:24:14;;;;;;;3.72;3.33;;;;;;;-7.38;94.52;61259.03;5023425;28;20214;-77
2022/03/11 04:26:43;;;;;;;4.38;3.10;;;;;;;-7.34;94.62;61255.69;5028171;28;20227;-79
2022/03/11 04:29:11;;;;;;;7.30;3.17;;;;;;;-7.34;94.55;61258.16;5022330;28;20206;-76
2022/03/11 04:31:37;;;;;;;3.03;2.80;;;;;;;-7.31;94.67;61263.66;5019481;28;20217;-77
2022/03/11 04:34:04;;;;;;;4.50;3.70;;;;;;;-7.35;94.41;61254.66;5024155;28;20191;-76
2022/03/11 04:36:33;;;;;;;5.03;3.22;;;;;;;-7.35;94.29;61257.13;5022321;28;20215;-76
2022/03/11 04:39:00;;;;;;;3.67;3.33;;;;;;;-7.32;94.32;61257.22;5023049;28;20206;-76
2022/03/11 04:41:29;;;;;;;3.75;2.72;;;;;;;-7.34;94.26;61253.22;5022860;28;20203;-78
2022/03/11 04:43:57;;;;;;;4.63;3.63;;;;;;;-7.33;94.00;61261.13;5023950;28;20412;-76
2022/03/11 04:46:24;;;;;;;4.47;3.60;;;;;;;-7.32;94.00;61257.22;5022442;28;20202;-77
2022/03/11 04:48:50;;;;;;;5.32;3.58;;;;;;;-7.34;94.06;61258.16;5023293;28;20435;-76
2022/03/11 04:51:17;;;;;;;4.93;3.58;;;;;;;-7.28;94.42;61263.72;5021135;28;20271;-76
2022/03/11 04:53:44;;;;;;;3.00;2.80;;;;;;;-7.35;94.54;61256.63;5024670;28;20225;-75
2022/03/11 04:56:11;;;;;;;4.22;3.25;;;;;;;-7.32;95.07;61257.22;5022875;28;20198;-75
2022/03/11 04:58:40;;;;;;;7.25;3.83;;;;;;;-7.39;95.37;61255.53;5018760;28;20238;-75
2022/03/11 05:01:07;;;;;;;4.53;3.08;;;;;;;-7.34;95.59;61252.69;5022000;28;20432;-74
2022/03/11 05:03:34;;;;;;;3.05;2.75;;;;;;;-7.28;95.60;61261.78;5022213;28;20222;-75
2022/03/11 05:06:00;;;;;;;3.88;3.13;;;;;;;-7.23;95.77;61266.84;5025938;28;20237;-76
2022/03/11 05:08:27;;;;;;;3.67;3.38;;;;;;;-7.20;95.45;61269.94;5017807;28;20253;-75
2022/03/11 05:10:54;;;;;;;6.10;4.20;;;;;;;-7.17;95.55;61277.41;5023822;28;20237;-75
2022/03/11 05:13:22;;;;;;;2.95;2.65;;;;;;;-7.17;95.20;61275.44;5024866;28;20241;-75
2022/03/11 05:15:51;;;;;;;4.00;3.28;;;;;;;-7.10;95.03;61279.59;5024542;28;20210;-76
2022/03/11 05:18:17;;;;;;;10.40;4.30;;;;;;;-7.04;94.77;61285.19;5020997;28;20238;-75
2022/03/11 05:20:44;;;;;;;4.95;3.70;;;;;;;-7.09;94.86;61288.00;5023859;28;20232;-76
2022/03/11 05:23:12;;;;;;;5.65;3.22;;;;;;;-7.06;94.91;61285.63;5023744;28;20214;-75
2022/03/11 05:25:39;;;;;;;4.85;3.72;;;;;;;-7.03;94.88;61291.66;5020210;28;20206;-76
2022/03/11 05:28:07;;;;;;;7.82;4.30;;;;;;;-6.97;94.45;61300.22;5021906;28;20520;-77
2022/03/11 05:30:34;;;;;;;35.80;18.92;;;;;;;-6.92;94.19;61297.38;5019956;28;20241;-76
2022/03/11 05:33:03;;;;;;;7.80;6.07;;;;;;;-6.89;93.54;61300.44;5034229;28;20218;-77
2022/03/11 05:35:30;;;;;;;4.43;3.88;;;;;;;-6.88;93.03;61301.97;5029416;28;20245;-77
2022/03/11 05:37:56;;;;;;;4.25;3.70;;;;;;;-6.78;92.95;61309.16;5029761;28;20280;-77
2022/03/11 05:40:23;;;;;;;5.95;4.70;;;;;;;-6.70;92.94;61320.28;5027092;28;20199;-77
2022/03/11 05:42:51;;;;;;;6.22;5.32;;;;;;;-6.52;92.66;61338.09;5024229;28;20242;-77
2022/03/11 05:45:20;;;;;;;6.13;5.13;;;;;;;-6.39;91.87;61356.28;5021183;28;20236;-77
2022/03/11 05:47:47;;;;;;;4.38;3.95;;;;;;;-6.36;90.87;61346.97;5030184;28;20218;-77
2022/03/11 05:50:16;;;;;;;4.45;3.95;;;;;;;-6.28;90.25;61365.50;5023594;28;20306;-77
2022/03/11 05:52:44;;;;;;;6.75;5.15;;;;;;;-6.05;89.47;61385.94;5024782;28;20221;-76
2022/03/11 05:55:12;;;;;;;12.27;5.72;;;;;;;-5.85;89.46;61401.38;5023716;28;20515;-77
2022/03/11 05:57:39;;;;;;;10.80;6.97;;;;;;;-5.62;89.07;61437.16;5037374;28;20592;-76
2022/03/11 06:00:08;;;;;;;10.90;7.32;;;;;;;-5.35;88.44;61457.25;5041379;28;20209;-76
2022/03/11 06:02:38;;;;;;;9.52;7.18;;;;;;;-5.01;88.15;61488.94;5031926;28;20264;-75
2022/03/11 06:05:06;;;;;;;12.90;7.93;;;;;;;-4.64;87.46;61529.13;5025265;28;20508;-77
2022/03/11 06:07:34;;;;;;;14.65;8.85;;;;;;;-4.30;86.69;61565.78;5041934;28;20214;-78
2022/03/11 06:10:01;;;;;;;16.17;9.82;;;;;;;-3.94;85.17;61600.56;5035886;28;20197;-77
2022/03/11 06:12:27;;;;;;;23.35;9.90;;;;;;;-3.83;83.96;61606.31;5030543;28;20215;-78
2022/03/11 06:14:54;;;;;;;13.30;8.52;;;;;;;-3.70;84.06;61630.03;5025010;28;20228;-75
2022/03/11 06:17:21;;;;;;;13.20;8.63;;;;;;;-3.53;83.80;61642.41;5026103;28;20582;-77
2022/03/11 06:19:48;;;;;;;18.13;10.13;;;;;;;-3.04;83.88;61683.97;5024032;28;20202;-76
2022/03/11 06:22:14;;;;;;;15.43;9.55;;;;;;;-2.82;81.43;61711.44;5025294;28;20257;-76
2022/03/11 06:24:43;;;;;;;15.57;8.88;;;;;;;-3.19;80.29;61671.66;5024231;28;20546;-76
2022/03/11 06:27:09;;;;;;;15.93;9.25;;;;;;;-3.29;82.43;61663.41;5028098;28;20219;-77
2022/03/11 06:29:36;;;;;;;17.65;9.88;;;;;;;-3.14;81.84;61681.22;5028455;28;20245;-77
2022/03/11 06:32:03;;;;;;;15.60;9.70;;;;;;;-2.81;81.10;61712.97;5024171;28;20389;-76
2022/03/11 06:34:30;;;;;;;14.10;8.38;;;;;;;-3.32;81.16;61663.34;5026012;28;20217;-76
2022/03/11 06:36:57;;;;;;;11.55;8.23;;;;;;;-3.31;80.41;61668.84;5025051;28;20214;-76
2022/03/11 06:39:24;;;;;;;10.90;8.05;;;;;;;-3.84;83.35;61610.78;5026631;28;20195;-77
2022/03/11 06:41:52;;;;;;;14.85;8.93;;;;;;;-4.31;85.56;61562.28;5025323;28;20226;-76
2022/03/11 06:44:19;;;;;;;12.70;8.68;;;;;;;-4.50;87.39;61535.97;5026568;28;20507;-77
2022/03/11 06:46:46;;;;;;;11.52;7.38;;;;;;;-4.08;89.16;61586.28;5025850;28;20219;-77
2022/03/11 06:49:13;;;;;;;14.07;8.02;;;;;;;-3.72;87.41;61622.50;5022580;28;20523;-77
2022/03/11 06:51:40;;;;;;;14.88;9.02;;;;;;;-3.41;85.63;61658.63;5026187;28;20294;-76
2022/03/11 06:54:07;;;;;;;5.38;4.75;;;;;;;-4.01;84.43;61587.94;5022335;28;20195;-77
2022/03/11 06:56:35;;;;;;;12.88;8.32;;;;;;;-4.14;88.00;61577.16;5026013;28;20207;-77
2022/03/11 06:59:04;;;;;;;14.27;8.05;;;;;;;-4.48;87.51;61538.00;5023940;28;20230;-76
2022/03/11 07:01:31;;;;;;;9.35;6.72;;;;;;;-4.58;89.70;61527.81;5024156;28;20254;-77
2022/03/11 07:03:57;;;;;;;8.10;6.70;;;;;;;-4.68;89.84;61530.53;5022382;28;20242;-77
2022/03/11 07:06:24;;;;;;;11.18;6.75;;;;;;;-4.51;90.36;61539.91;5026614;28;20496;-76
2022/03/11 07:08:51;;;;;;;7.95;5.70;;;;;;;-4.65;90.34;61528.13;5029632;28;20195;-77
2022/03/11 07:11:18;;;;;;;12.32;7.05;;;;;;;-4.56;90.95;61529.34;5027366;28;20198;-75
2022/03/11 07:13:45;;;;;;;29.35;15.93;;;;;;;-4.66;90.87;61532.06;5026232;28;20194;-77
2022/03/11 07:16:13;;;;;;;40.83;18.60;;;;;;;-4.58;90.98;61534.75;5025374;28;20206;-77
2022/03/11 07:18:40;;;;;;;14.00;8.52;;;;;;;-4.60;90.40;61527.72;5024346;28;20234;-76
2022/03/11 07:21:07;;;;;;;40.95;17.85;;;;;;;-4.56;92.10;61537.31;5022551;28;20206;-76
2022/03/11 07:23:34;;;;;;;24.27;11.98;;;;;;;-4.42;92.17;61551.06;5025446;28;20261;-78
2022/03/11 07:26:00;;;;;;;25.90;12.70;;;;;;;-4.50;91.06;61543.41;5015531;28;20203;-76
2022/03/11 07:28:28;;;;;;;31.35;13.10;;;;;;;-4.31;90.16;61567.75;5023668;28;20586;-76
2022/03/11 07:30:55;;;;;;;23.00;12.68;;;;;;;-3.94;88.73;61602.53;5021101;28;20261;-77
2022/03/11 07:33:23;;;;;;;30.67;14.88;;;;;;;-3.83;89.08;61606.81;5011802;28;20290;-76
2022/03/11 07:35:50;;;;;;;15.38;9.30;;;;;;;-3.63;86.58;61627.25;5023013;28;20264;-76
2022/03/11 07:38:17;;;;;;;22.00;11.95;;;;;;;-3.29;85.07;61666.41;5025343;28;20281;-76
2022/03/11 07:40:44;;;;;;;26.25;12.27;;;;;;;-3.26;85.49;61668.97;5022987;28;20202;-77
2022/03/11 07:43:13;;;;;;;18.42;8.95;;;;;;;-2.87;83.04;61706.31;5023290;28;20218;-76
2022/03/11 07:45:40;;;;;;;18.25;9.95;;;;;;;-2.83;80.96;61707.94;5024172;28;20634;-76
2022/03/11 07:48:07;;;;;;;23.42;12.73;;;;;;;-2.45;82.52;61749.25;5025406;28;20219;-75
2022/03/11 07:50:35;;;;;;;38.08;17.70;;;;;;;-2.53;77.51;61741.59;5022036;28;20218;-76
2022/03/11 07:53:02;;;;;;;27.48;9.52;;;;;;;-3.04;77.82;61696.94;5022337;28;20305;-76
2022/03/11 07:55:29;;;;;;;12.98;7.78;;;;;;;-3.44;78.18;61648.09;5018376;28;20504;-76
2022/03/11 07:57:56;;;;;;;12.57;7.53;;;;;;;-3.60;79.31;61632.78;5024374;28;20554;-75
2022/03/11 08:00:23;;;;;;;9.82;6.43;;;;;;;-3.58;78.10;61629.34;5024480;28;20209;-76
2022/03/11 08:02:50;;;;;;;25.35;10.32;;;;;;;-3.38;78.32;61659.72;5014411;28;20258;-75
2022/03/11 08:05:18;;;;;;;32.53;15.63;;;;;;;-3.67;78.01;61627.59;5013864;28;20536;-76
2022/03/11 08:07:48;;;;;;;12.77;8.02;;;;;;;-3.74;78.14;61625.94;5024276;28;20227;-76
2022/03/11 08:10:14;;;;;;;9.48;6.22;;;;;;;-3.71;78.30;61618.56;5024900;28;20202;-76
2022/03/11 08:12:42;;;;;;;8.68;7.20;;;;;;;-3.31;79.21;61666.84;5024427;28;20380;-76
2022/03/11 08:15:11;;;;;;;8.07;6.22;;;;;;;-2.86;77.07;61707.84;5020685;28;20202;-76
2022/03/11 08:17:39;;;;;;;9.55;7.32;;;;;;;-2.37;74.88;61757.94;5024153;28;20269;-75
2022/03/11 08:20:10;;;;;;;8.57;6.63;;;;;;;-1.91;73.69;61806.97;5024841;28;20237;-77
2022/03/11 08:22:38;;;;;;;13.93;6.30;;;;;;;-1.66;67.47;61827.03;5022381;28;20242;-76
2022/03/11 08:25:09;;;;;;;12.25;7.47;;;;;;;-1.47;65.86;61844.47;5024250;28;20211;-75
2022/03/11 08:27:36;;;;;;;10.07;6.28;;;;;;;-1.37;63.86;61859.72;5023164;28;20559;-75
2022/03/11 08:30:04;;;;;;;9.27;6.88;;;;;;;-0.88;68.24;61911.84;5021723;28;20222;-76
2022/03/11 08:32:30;;;;;;;8.88;6.10;;;;;;;-0.91;60.75;61908.78;5005755;28;20269;-74
2022/03/11 08:34:58;;;;;;;7.43;6.72;;;;;;;-1.34;61.37;61862.25;5021942;28;20508;-75
2022/03/11 08:37:25;;;;;;;8.82;6.50;;;;;;;-1.03;63.26;61890.97;5024693;28;20222;-75
2022/03/11 08:39:52;;;;;;;8.95;6.38;;;;;;;-0.34;60.07;61964.66;5021049;28;20234;-75
2022/03/11 08:42:20;;;;;;;11.10;7.15;;;;;;;-0.36;56.80;61960.09;5024454;28;20218;-75
2022/03/11 08:44:47;;;;;;;7.30;6.38;;;;;;;-0.15;58.51;61986.09;5024836;28;20237;-74
2022/03/11 08:47:14;;;;;;;8.80;6.45;;;;;;;-0.32;59.68;61966.69;5023180;28;20237;-75
2022/03/11 08:49:41;;;;;;;12.88;6.68;;;;;;;-0.36;58.41;61962.59;5023912;28;20205;-75
2022/03/11 08:52:08;;;;;;;7.80;6.47;;;;;;;-0.74;56.91;61923.69;5021001;28;20280;-75
2022/03/11 08:54:35;;;;;;;9.15;7.18;;;;;;;-1.07;61.78;61889.41;5021466;28;20475;-74
2022/03/11 08:57:03;;;;;;;8.23;6.55;;;;;;;-1.01;57.80;61893.53;5023920;28;20218;-75
2022/03/11 08:59:31;;;;;;;9.38;6.85;;;;;;;-1.07;59.01;61891.88;5023759;28;20245;-75
2022/03/11 09:01:58;;;;;;;10.05;6.70;;;;;;;-1.24;59.10;61870.00;5020748;28;20214;-75
2022/03/11 09:04:25;;;;;;;6.88;5.45;;;;;;;-1.65;59.45;61831.06;5023683;28;20190;-76
2022/03/11 09:06:52;;;;;;;9.90;6.18;;;;;;;-1.54;61.55;61844.81;5020372;28;20223;-74
2022/03/11 09:09:19;;;;;;;10.18;6.68;;;;;;;-2.10;61.59;61787.53;5019485;28;20245;-75
2022/03/11 09:11:46;;;;;;;7.03;5.65;;;;;;;-1.79;64.11;61816.72;5019999;28;20507;-75
2022/03/11 09:14:13;;;;;;;6.85;5.95;;;;;;;-1.40;62.73;61859.13;5022377;28;20241;-75
2022/03/11 09:16:42;;;;;;;5.80;5.25;;;;;;;-1.30;61.33;61868.84;5022195;28;20230;-74
2022/03/11 09:19:09;;;;;;;7.55;4.93;;;;;;;-1.38;60.25;61853.69;5023343;28;20511;-74
2022/03/11 09:21:36;;;;;;;6.80;6.07;;;;;;;-1.14;58.10;61880.25;5022028;28;20227;-76
2022/03/11 09:24:03;;;;;;;7.90;5.45;;;;;;;-0.57;57.62;61943.09;5023411;28;20496;-75
2022/03/11 09:26:30;;;;;;;5.65;4.72;;;;;;;-0.23;66.01;61975.94;5021270;28;20202;-75
2022/03/11 09:28:57;;;;;;;5.80;5.30;;;;;;;-0.19;60.77;61979.50;5007675;28;20202;-74
2022/03/11 09:31:23;;;;;;;9.07;5.57;;;;;;;-0.29;55.62;61969.78;5022719;28;20376;-75
2022/03/11 09:33:52;;;;;;;5.90;5.20;;;;;;;-0.64;54.00;61931.41;5015020;28;20488;-74
2022/03/11 09:36:19;;;;;;;8.50;5.53;;;;;;;0.01;54.81;61997.50;5023775;28;20269;-75
2022/03/11 09:38:47;;;;;;;8.63;5.75;;;;;;;-0.07;53.85;61989.31;5021167;28;20253;-74
2022/03/11 09:41:16;;;;;;;5.80;4.75;;;;;;;0.27;52.39;62026.13;5024942;28;20199;-75
2022/03/11 09:43:43;;;;;;;8.23;4.95;;;;;;;0.36;54.03;62035.34;5019972;28;20269;-74
2022/03/11 09:46:10;;;;;;;5.55;4.88;;;;;;;0.57;52.03;62057.38;5023670;28;20402;-76
2022/03/11 09:48:37;;;;;;;12.75;5.68;;;;;;;0.32;51.13;62029.28;5021670;28;20547;-76
2022/03/11 09:51:06;;;;;;;6.07;5.15;;;;;;;-0.17;54.88;61981.53;5024199;28;20504;-76
2022/03/11 09:53:33;;;;;;;7.47;5.43;;;;;;;0.19;52.28;62015.44;5024812;28;20245;-76
2022/03/11 09:56:00;;;;;;;6.32;5.15;;;;;;;0.44;50.48;62043.56;5024181;28;20211;-76
2022/03/11 09:58:26;;;;;;;5.43;4.90;;;;;;;0.37;48.87;62036.91;5023611;28;20264;-77
2022/03/11 10:00:53;;;;;;;5.82;4.18;;;;;;;0.66;48.97;62066.63;5026009;28;20199;-77
2022/03/11 10:03:20;;;;;;;6.65;4.75;;;;;;;0.37;50.50;62036.91;5025779;28;20219;-77
2022/03/11 10:05:49;;;;;;;7.30;4.90;;;;;;;0.79;49.50;62082.47;5013177;28;20199;-77
2022/03/11 10:08:30;;;;;;;5.25;4.70;;;;;;;1.27;49.27;62128.16;5008811;28;20232;-77
2022/03/11 10:11:16;;;;;;;5.50;4.88;;;;;;;1.25;52.90;62126.63;5026311;28;20426;-75
2022/03/11 10:13:43;;;;;;;5.63;4.38;;;;;;;1.38;48.52;62139.47;5029224;28;20274;-77
2022/03/11 10:16:18;;;;;;;8.18;4.68;;;;;;;1.73;48.52;62175.88;5021420;28;20406;-77
2022/03/11 10:18:53;;;;;;;5.57;4.82;;;;;;;1.71;47.15;62180.84;5024527;28;20288;-76
2022/03/11 10:21:20;;;;;;;7.38;5.50;;;;;;;1.90;45.91;62190.31;5022090;28;20270;-77
2022/03/11 10:23:51;;;;;;;6.95;4.80;;;;;;;1.46;46.52;62148.19;5025462;28;20348;-77
2022/03/11 10:26:31;;;;;;;7.55;4.85;;;;;;;1.05;45.74;62108.63;5026397;28;20203;-75
2022/03/11 10:28:59;;;;;;;6.22;5.28;;;;;;;1.06;46.14;62107.66;5010062;28;20195;-76
2022/03/11 10:31:31;;;;;;;12.48;5.75;;;;;;;1.41;46.24;62148.06;5006635;28;20210;-76
2022/03/11 10:34:21;;;;;;;5.07;4.57;;;;;;;1.32;45.18;62135.78;5017793;28;20195;-76
2022/03/11 10:36:53;;;;;;;6.50;5.07;;;;;;;1.19;50.80;62120.47;5028946;28;20297;-75
2022/03/11 10:39:25;;;;;;;6.40;5.15;;;;;;;1.59;47.13;62164.03;5030566;28;20228;-75
2022/03/11 10:41:53;;;;;;;6.60;4.90;;;;;;;1.76;45.94;62178.97;5030733;28;20222;-77
2022/03/11 10:44:23;;;;;;;7.55;4.97;;;;;;;1.09;43.99;62108.22;5028378;28;20321;-75
2022/03/11 10:46:51;;;;;;;8.63;5.00;;;;;;;1.46;44.95;62150.16;5032048;28;20215;-75
2022/03/11 10:49:26;;;;;;;5.70;5.05;;;;;;;1.62;44.31;62169.09;5028016;28;20203;-76
2022/03/11 10:51:55;;;;;;;6.57;5.53;;;;;;;1.25;44.05;62126.63;5026435;28;20221;-76
2022/03/11 10:54:25;;;;;;;4.35;3.97;;;;;;;0.65;45.14;62070.63;5026991;28;20202;-75
2022/03/11 10:56:52;;;;;;;4.63;4.22;;;;;;;0.66;47.01;62068.59;5022203;28;20230;-76
2022/03/11 10:59:27;;;;;;;4.70;4.30;;;;;;;0.65;46.51;62062.59;5027491;28;20234;-75
2022/03/11 11:01:56;;;;;;;12.23;4.90;;;;;;;0.86;46.26;62086.63;5026878;28;20221;-75
2022/03/11 11:04:23;;;;;;;9.75;4.47;;;;;;;0.42;45.58;62044.00;5024527;28;20202;-75
2022/03/11 11:06:51;;;;;;;5.82;5.00;;;;;;;0.14;46.27;62010.31;5022997;28;20219;-74
2022/03/11 11:09:23;;;;;;;7.05;5.28;;;;;;;0.61;48.68;62061.50;5026530;28;20527;-76
2022/03/11 11:11:52;;;;;;;4.53;3.95;;;;;;;0.13;47.75;62009.28;5026948;28;20214;-75
2022/03/11 11:14:19;;;;;;;6.55;5.18;;;;;;;0.23;48.71;62022.03;5024510;28;20453;-76
2022/03/11 11:16:48;;;;;;;5.32;4.82;;;;;;;0.88;46.95;62089.19;5025925;28;20282;-76
2022/03/11 11:19:16;;;;;;;7.88;4.78;;;;;;;1.55;46.08;62156.91;5025662;28;20566;-74
2022/03/11 11:21:45;;;;;;;5.63;4.78;;;;;;;1.92;45.96;62195.38;5026600;28;20448;-75
2022/03/11 11:24:15;;;;;;;6.57;4.70;;;;;;;2.29;44.37;62233.41;5022648;28;20203;-75
2022/03/11 11:26:45;;;;;;;5.25;4.22;;;;;;;2.18;45.35;62224.59;5023300;28;20360;-75
2022/03/11 11:29:16;;;;;;;11.10;6.68;;;;;;;1.13;47.19;62119.34;5025127;28;20253;-75
2022/03/11 11:31:45;;;;;;;6.10;4.93;;;;;;;0.66;50.56;62063.59;5026804;28;20531;-75
2022/03/11 11:34:37;;;;;;;4.85;4.35;;;;;;;0.68;45.54;62073.69;5019804;28;20197;-76